Time;durP1;ratioP1;P1;durP2;ratioP2;P2;SDS_P1;SDS_P2;PMS_P1;PMS_P2;Temp;Humidity;BMP_temperature;BMP_pressure;BME280_temperature;BME280_humidity;BME280_pressure;Samples;Min_cycle;Max_cycle;Signal;HPM_P1;HPM_P2
2023/07/19 00:00:00;;;;;;;12.07;5.13;;;;;;;28.86;55.83;100647.88;4995398;28;20042;-80
2023/07/19 00:02:54;;;;;;;16.45;5.00;;;;;;;28.72;55.77;100658.69;4987499;28;20523;-80
2023/07/19 00:05:49;;;;;;;7.43;4.15;;;;;;;28.64;55.85;100657.28;4978725;28;20050;-80
2023/07/19 00:08:43;;;;;;;9.70;5.00;;;;;;;28.56;55.89;100655.88;4976236;28;20408;-78
2023/07/19 00:11:38;;;;;;;13.63;4.25;;;;;;;28.58;55.79;100648.63;4981260;28;20412;-78
2023/07/19 00:14:30;;;;;;;8.88;4.57;;;;;;;28.54;55.68;100642.34;4979120;28;20415;-79
2023/07/19 00:17:24;;;;;;;8.48;3.92;;;;;;;28.53;56.03;100651.19;4977552;28;20050;-79
2023/07/19 00:20:24;;;;;;;;;;;;;;;28.50;56.15;100639.63;4970680;28;20053;-79
2023/07/19 00:23:22;;;;;;;10.13;3.25;;;;;;;28.49;55.51;100614.91;4990632;28;19917;-80
2023/07/19 00:26:16;;;;;;;7.80;4.35;;;;;;;28.45;55.91;100611.41;4998938;28;20526;-79
2023/07/19 00:29:08;;;;;;;;;;;;;;;28.51;55.98;100618.03;4999083;28;20436;-79
2023/07/19 00:32:00;;;;;;;11.50;4.28;;;;;;;28.53;55.33;100618.41;4997942;28;19913;-80
2023/07/19 00:34:55;;;;;;;11.25;4.55;;;;;;;28.44;55.57;100619.00;4997814;28;20041;-79
2023/07/19 00:37:56;;;;;;;10.98;4.90;;;;;;;28.41;55.50;100603.09;4998726;28;20090;-80
2023/07/19 00:40:56;;;;;;;8.27;3.85;;;;;;;28.37;55.74;100591.22;4997622;28;20045;-80
2023/07/19 00:43:51;;;;;;;9.10;4.60;;;;;;;28.32;55.84;100579.78;4998764;28;20065;-79
2023/07/19 00:46:43;;;;;;;;;;;;;;;28.31;54.86;100567.03;4997995;28;20053;-79
2023/07/19 00:49:40;;;;;;;9.23;4.40;;;;;;;28.27;55.96;100544.75;5001337;28;19921;-80
2023/07/19 00:52:34;;;;;;;12.02;4.10;;;;;;;28.21;54.52;100523.34;4999554;28;20061;-80
2023/07/19 00:55:30;;;;;;;10.63;4.22;;;;;;;28.27;54.92;100510.41;5003129;28;20053;-79
2023/07/19 00:58:27;;;;;;;10.52;3.85;;;;;;;28.13;55.31;100505.19;4990933;28;20053;-79
2023/07/19 01:01:22;;;;;;;7.35;3.38;;;;;;;28.11;55.40;100499.22;4997855;28;20518;-79
2023/07/19 01:04:16;;;;;;;11.38;4.00;;;;;;;28.17;55.13;100494.69;5001126;28;20042;-79
2023/07/19 01:07:08;;;;;;;;;;;;;;;27.69;56.39;100490.69;4986329;28;20054;-80
2023/07/19 01:10:03;;;;;;;7.60;4.07;;;;;;;27.75;56.42;100480.56;4997982;28;19914;-79
2023/07/19 01:13:08;;;;;;;;;;;;;;;27.62;57.74;100476.94;4997171;28;20053;-79
2023/07/19 01:16:00;;;;;;;8.05;4.43;;;;;;;27.80;56.97;100476.47;4995196;28;19914;-79
2023/07/19 01:18:55;;;;;;;15.05;5.28;;;;;;;27.98;57.02;100476.78;4998494;28;20053;-78
2023/07/19 01:21:47;;;;;;;;;;;;;;;27.86;56.82;100474.72;4997237;28;20046;-79
2023/07/19 01:24:46;;;;;;;7.55;4.00;;;;;;;28.07;56.59;100472.13;4999878;28;20302;-78
2023/07/19 01:27:40;;;;;;;9.05;4.05;;;;;;;28.07;56.06;100480.53;4997422;28;20054;-78
2023/07/19 01:30:35;;;;;;;8.55;4.45;;;;;;;27.97;56.34;100484.41;4994315;28;20045;-78
2023/07/19 01:33:34;;;;;;;4.93;3.85;;;;;;;28.04;56.04;100486.97;4995530;28;20044;-78
2023/07/19 01:36:29;;;;;;;7.68;3.60;;;;;;;28.08;56.02;100489.72;4987301;28;20045;-78
2023/07/19 01:39:25;;;;;;;8.48;4.18;;;;;;;28.07;56.24;100482.53;4985356;28;20053;-78
2023/07/19 01:42:16;;;;;;;;;;;;;;;28.07;56.38;100490.94;4997691;28;20106;-78
2023/07/19 01:45:12;;;;;;;8.70;3.80;;;;;;;28.07;56.62;100490.94;4999538;28;19914;-78
2023/07/19 01:48:04;;;;;;;10.30;4.72;;;;;;;27.98;56.83;100490.78;4995507;28;20054;-78
2023/07/19 01:50:58;;;;;;;17.73;5.82;;;;;;;27.91;56.64;100485.34;4992512;28;20050;-78
2023/07/19 01:53:53;;;;;;;10.10;4.88;;;;;;;27.95;56.84;100481.25;4995667;28;20143;-78
2023/07/19 01:56:45;;;;;;;;;;;;;;;27.88;56.89;100484.25;4994506;28;20045;-78
2023/07/19 01:59:40;;;;;;;8.43;5.15;;;;;;;27.88;56.65;100475.84;4991959;28;19914;-78
2023/07/19 02:02:40;;;;;;;8.10;4.32;;;;;;;27.86;56.98;100474.72;4995176;28;20063;-78
2023/07/19 02:05:32;;;;;;;10.68;4.70;;;;;;;27.85;57.08;100467.53;4995355;28;20686;-78
2023/07/19 02:08:27;;;;;;;7.60;4.07;;;;;;;27.85;56.50;100465.53;4984084;28;20074;-78
2023/07/19 02:11:17;;;;;;;;;;;;;;;27.80;56.95;100465.28;4994882;28;20057;-78
2023/07/19 02:14:11;;;;;;;12.77;4.88;;;;;;;27.78;56.87;100479.72;5011049;28;19913;-79
2023/07/19 02:17:06;;;;;;;14.27;5.22;;;;;;;28.04;55.81;100464.63;4993131;28;20037;-78
2023/07/19 02:20:00;;;;;;;12.80;4.28;;;;;;;28.02;55.79;100472.69;4988000;28;20045;-79
2023/07/19 02:22:52;;;;;;;;;;;;;;;28.06;55.77;100487.34;4988777;28;20126;-79
2023/07/19 02:25:48;;;;;;;13.25;5.47;;;;;;;27.98;55.87;100482.38;5002200;28;19921;-79
2023/07/19 02:28:43;;;;;;;11.60;4.93;;;;;;;27.85;56.02;100473.91;4980107;28;20138;-79
2023/07/19 02:31:35;;;;;;;;;;;;;;;27.78;56.79;100490.88;4993440;28;20050;-79
2023/07/19 02:34:29;;;;;;;8.98;4.25;;;;;;;27.79;56.48;100486.06;4980341;28;19914;-80
2023/07/19 02:37:19;;;;;;;;;;;;;;;27.82;56.59;100477.59;4999562;28;20119;-80
2023/07/19 02:40:14;;;;;;;12.13;5.00;;;;;;;27.77;56.81;100483.72;5007640;28;19914;-80
2023/07/19 02:43:03;;;;;;;8.57;4.43;;;;;;;27.74;56.80;100486.59;4996213;28;20053;-79
2023/07/19 02:45:58;;;;;;;8.15;4.00;;;;;;;27.70;57.09;100489.47;5004779;28;20415;-80
2023/07/19 02:48:53;;;;;;;11.65;4.30;;;;;;;27.72;57.39;100486.25;5000718;28;20054;-79
2023/07/19 02:51:49;;;;;;;15.20;5.10;;;;;;;27.72;57.09;100484.25;5006181;28;20289;-79
2023/07/19 02:54:41;;;;;;;;;;;;;;;27.73;57.29;100483.03;4998710;28;20110;-78
2023/07/19 02:57:36;;;;;;;12.25;4.90;;;;;;;27.61;57.77;100473.34;4999158;28;19914;-79
2023/07/19 03:00:28;;;;;;;;;;;;;;;27.40;57.96;100468.25;4999824;28;20053;-79
2023/07/19 03:03:22;;;;;;;7.07;4.82;;;;;;;27.42;58.38;100468.59;5005243;28;19914;-78
2023/07/19 03:06:17;;;;;;;8.38;4.38;;;;;;;27.52;58.07;100484.34;4992268;28;20053;-79
2023/07/19 03:09:12;;;;;;;8.75;5.32;;;;;;;27.26;58.96;100481.78;4990995;28;20061;-77
2023/07/19 03:12:06;;;;;;;10.98;4.68;;;;;;;27.41;58.47;100485.78;4995706;28;20550;-79
2023/07/19 03:14:58;;;;;;;;;;;;;;;26.67;61.04;100480.63;4987558;28;20053;-78
2023/07/19 03:17:55;;;;;;;15.30;5.05;;;;;;;26.58;61.29;100471.28;4999450;28;19914;-78
2023/07/19 03:20:56;;;;;;;9.82;4.05;;;;;;;26.55;61.35;100477.72;4995071;28;20050;-78
2023/07/19 03:23:51;;;;;;;14.93;5.72;;;;;;;26.42;61.43;100460.03;5004085;28;20041;-78
2023/07/19 03:26:43;;;;;;;;;;;;;;;26.19;62.35;100466.47;4995788;28;20507;-77
2023/07/19 03:29:37;;;;;;;17.65;5.70;;;;;;;26.25;62.08;100473.16;5007544;28;19918;-78
2023/07/19 03:32:29;;;;;;;;;;;;;;;26.17;61.98;100475.25;4997669;28;20049;-76
2023/07/19 03:35:29;;;;;;;11.60;5.50;;;;;;;25.91;63.08;100476.13;5008042;28;19917;-77
2023/07/19 03:38:23;;;;;;;10.38;4.88;;;;;;;26.41;61.74;100476.03;4978181;28;20424;-78
2023/07/19 03:41:23;;;;;;;16.58;5.07;;;;;;;26.16;63.34;100484.81;4979034;28;20123;-79
2023/07/19 03:44:18;;;;;;;7.63;5.10;;;;;;;26.24;63.55;100477.16;4975569;28;20094;-77
2023/07/19 03:47:10;;;;;;;;;;;;;;;26.41;62.38;100473.22;4979832;28;20050;-78
2023/07/19 03:50:04;;;;;;;14.50;4.80;;;;;;;26.31;62.02;100466.63;4992733;28;20380;-78
2023/07/19 03:52:56;;;;;;;;;;;;;;;26.69;60.52;100466.25;5000790;28;20046;-79
2023/07/19 03:55:56;;;;;;;14.60;4.30;;;;;;;26.28;60.97;100481.44;4998337;28;19914;-77
2023/07/19 03:58:50;;;;;;;9.25;4.03;;;;;;;26.46;61.73;100489.47;4998991;28;20042;-79
2023/07/19 04:01:45;;;;;;;12.20;4.43;;;;;;;26.57;61.29;100494.81;4993274;28;20049;-78
2023/07/19 04:04:40;;;;;;;6.80;4.30;;;;;;;26.41;61.19;100506.69;4996498;28;20061;-79
2023/07/19 04:07:32;;;;;;;;;;;;;;;26.44;61.92;100505.03;5000589;28;20058;-79
2023/07/19 04:10:27;;;;;;;7.18;3.72;;;;;;;26.24;61.74;100505.03;5004609;28;19921;-77
2023/07/19 04:13:19;;;;;;;;;;;;;;;26.19;63.59;100485.97;4987345;28;20041;-78
2023/07/19 04:16:13;;;;;;;15.73;4.35;;;;;;;26.38;63.01;100488.81;5013842;28;19918;-77
2023/07/19 04:19:08;;;;;;;8.18;4.28;;;;;;;26.75;61.16;100493.22;4992296;28;20517;-77
2023/07/19 04:22:00;;;;;;;;;;;;;;;26.90;60.93;100484.59;4998772;28;20049;-77
2023/07/19 04:24:55;;;;;;;10.27;4.50;;;;;;;26.89;60.65;100488.59;5008654;28;20291;-76
2023/07/19 04:27:50;;;;;;;8.18;3.47;;;;;;;27.14;60.34;100503.56;4983605;28;20412;-77
2023/07/19 04:30:49;;;;;;;8.65;3.95;;;;;;;27.02;59.22;100498.63;4992125;28;20062;-75
2023/07/19 04:33:44;;;;;;;11.95;5.07;;;;;;;27.03;58.77;100508.59;5005636;28;20049;-75
2023/07/19 04:36:47;;;;;;;13.27;4.30;;;;;;;27.17;58.87;100505.47;4991225;28;20042;-75
2023/07/19 04:39:42;;;;;;;12.20;4.32;;;;;;;27.47;57.78;100498.03;4987087;28;20041;-75
2023/07/19 04:42:34;;;;;;;9.98;4.00;;;;;;;27.56;58.24;100501.03;4994574;28;20049;-78
2023/07/19 04:45:28;;;;;;;10.02;3.38;;;;;;;27.82;57.37;100513.16;4989947;28;20521;-77
2023/07/19 04:48:23;;;;;;;11.80;3.75;;;;;;;27.52;58.37;100517.09;5004516;28;20058;-77
2023/07/19 04:51:15;;;;;;;;;;;;;;;26.43;61.01;100509.03;4994825;28;20423;-76
2023/07/19 04:54:10;;;;;;;12.57;4.95;;;;;;;26.97;59.23;100501.94;4985717;28;19914;-77
2023/07/19 04:57:02;;;;;;;;;;;;;;;27.34;57.95;100502.72;4983968;28;20045;-78
2023/07/19 04:59:58;;;;;;;14.55;5.00;;;;;;;27.04;59.30;100507.38;5007570;28;20299;-78
2023/07/19 05:02:50;;;;;;;;;;;;;;;27.11;59.33;100493.28;4992584;28;20045;-77
2023/07/19 05:05:44;;;;;;;7.53;3.90;;;;;;;27.67;57.26;100490.38;4990220;28;19913;-77
2023/07/19 05:08:36;;;;;;;;;;;;;;;27.34;57.88;100491.53;4993683;28;20049;-77
2023/07/19 05:11:34;;;;;;;27.25;5.55;;;;;;;26.57;60.75;100481.66;5007211;28;19913;-77
2023/07/19 05:14:26;;;;;;;;;;;;;;;27.14;58.17;100474.84;4995342;28;20045;-77
2023/07/19 05:17:18;;;;;;;22.30;5.00;;;;;;;27.45;57.78;100489.28;5013045;28;19914;-77
2023/07/19 05:20:15;;;;;;;17.88;4.55;;;;;;;27.73;56.77;100487.84;4996851;28;20407;-77
2023/07/19 05:23:15;;;;;;;14.57;3.90;;;;;;;28.27;54.75;100482.41;5000899;28;20049;-77
2023/07/19 05:26:09;;;;;;;12.55;4.75;;;;;;;28.29;54.22;100480.75;4984793;28;20040;-77
2023/07/19 05:29:01;;;;;;;;;;;;;;;27.07;57.43;100486.19;4996304;28;20058;-77
2023/07/19 05:31:54;;;;;;;13.88;5.10;;;;;;;26.64;60.24;100486.28;4993250;28;19914;-78
2023/07/19 05:34:49;;;;;;;17.92;5.82;;;;;;;26.78;60.23;100484.00;4995228;28;20058;-80
2023/07/19 05:37:41;;;;;;;;;;;;;;;27.53;56.94;100473.97;5008105;28;20049;-80
2023/07/19 05:40:35;;;;;;;9.88;4.40;;;;;;;27.92;55.52;100484.94;5002677;28;19921;-78
2023/07/19 05:43:35;;;;;;;;;;;;;;;;;;;;;
2023/07/19 05:46:39;;;;;;;10.77;4.90;;;;;;;27.39;57.40;100485.44;4970536;28;20300;-82
2023/07/19 05:49:31;;;;;;;26.77;4.90;;;;;;;27.52;57.82;100483.56;4952241;28;20418;-80
2023/07/19 05:52:28;;;;;;;10.43;4.78;;;;;;;27.64;57.78;100497.59;4938201;29;20176;-84
2023/07/19 05:55:23;;;;;;;35.58;6.18;;;;;;;27.70;58.04;100502.66;4961863;28;20059;-82
2023/07/19 05:58:17;;;;;;;12.38;4.72;;;;;;;27.99;56.73;100493.09;4972459;28;20047;-82
2023/07/19 06:01:17;;;;;;;17.33;4.53;;;;;;;28.32;56.00;100498.66;4962973;28;20050;-82
2023/07/19 06:04:12;;;;;;;7.78;4.32;;;;;;;28.64;54.78;100501.34;4957876;28;20055;-82
2023/07/19 06:07:06;;;;;;;20.50;7.15;;;;;;;28.46;55.41;100498.25;4928713;29;20054;-83
2023/07/19 06:09:58;;;;;;;24.33;8.27;;;;;;;28.16;56.45;100501.50;4956978;28;20047;-83
2023/07/19 06:12:53;;;;;;;23.55;6.88;;;;;;;28.11;57.25;100499.22;4937995;29;20086;-80
2023/07/19 06:15:45;;;;;;;23.23;7.53;;;;;;;28.44;57.35;100500.72;4927112;29;20039;-81
2023/07/19 06:18:38;;;;;;;23.88;6.78;;;;;;;28.85;54.49;100511.94;4966634;28;20046;-80
2023/07/19 06:21:31;;;;;;;18.42;8.00;;;;;;;28.72;55.15;100518.75;4936920;29;20054;-81
2023/07/19 06:24:24;;;;;;;23.58;7.45;;;;;;;28.76;55.08;100514.59;4953203;28;20075;-83
2023/07/19 06:27:16;;;;;;;33.38;8.50;;;;;;;28.84;55.25;100512.41;4949510;29;20052;-80
2023/07/19 06:30:12;;;;;;;22.73;8.68;;;;;;;28.90;55.25;100505.03;4935491;29;20051;-80
2023/07/19 06:33:06;;;;;;;23.17;8.23;;;;;;;29.01;55.26;100511.06;4961580;28;20050;-79
2023/07/19 06:36:01;;;;;;;25.10;7.65;;;;;;;29.03;55.63;100496.63;4936903;29;20704;-81
2023/07/19 06:38:53;;;;;;;;;;;;;;;29.02;55.74;100518.22;4955925;28;20058;-79
2023/07/19 06:41:47;;;;;;;9.05;5.75;;;;;;;28.90;55.90;100525.38;4968209;28;19914;-81
2023/07/19 06:44:42;;;;;;;13.48;7.05;;;;;;;28.86;55.82;100510.69;4938275;29;20042;-81
2023/07/19 06:47:37;;;;;;;13.10;7.43;;;;;;;28.82;56.39;100523.25;4959984;28;20096;-79
2023/07/19 06:50:29;;;;;;;13.70;6.60;;;;;;;29.02;55.49;100520.25;4942519;28;20062;-80
2023/07/19 06:53:23;;;;;;;26.67;8.15;;;;;;;28.99;56.94;100547.13;4936221;29;20047;-90
2023/07/19 06:56:18;;;;;;;22.13;7.22;;;;;;;29.09;55.97;100537.63;4939943;29;20070;-86
2023/07/19 06:59:10;;;;;;;18.33;7.57;;;;;;;29.17;55.56;100524.19;4943519;29;20042;-89
2023/07/19 07:02:04;;;;;;;21.05;8.63;;;;;;;29.25;55.51;100533.94;4954461;28;20050;-89
2023/07/19 07:05:02;;;;;;;24.02;8.65;;;;;;;29.33;55.24;100544.50;4965053;28;20050;-90
2023/07/19 07:07:56;;;;;;;19.13;8.82;;;;;;;29.36;54.82;100548.41;4954212;28;20066;-88
2023/07/19 07:10:51;;;;;;;24.83;10.05;;;;;;;29.39;54.96;100550.34;4938587;29;20054;-89
2023/07/19 07:13:43;;;;;;;21.13;8.32;;;;;;;29.45;54.73;100562.56;4936154;29;20043;-90
2023/07/19 07:16:34;;;;;;;15.88;6.63;;;;;;;29.50;55.00;100561.22;4968116;28;20046;-90
2023/07/19 07:19:29;;;;;;;587.17;146.45;;;;;;;29.50;54.79;100555.63;4944291;29;20054;-91
2023/07/19 07:22:24;;;;;;;462.77;113.00;;;;;;;29.54;54.54;100547.88;4946628;28;20051;-89
2023/07/19 07:25:13;;;;;;;529.35;128.68;;;;;;;29.60;54.45;100546.88;4945774;29;20494;-87
2023/07/19 07:28:08;;;;;;;354.27;83.03;;;;;;;29.63;54.72;100548.75;4922293;29;20426;-87
2023/07/19 07:31:05;;;;;;;212.38;52.75;;;;;;;29.67;54.38;100548.63;4948210;28;20043;-87
2023/07/19 07:33:58;;;;;;;155.50;41.35;;;;;;;29.68;54.06;100548.19;4955993;28;20039;-87
2023/07/19 07:36:52;;;;;;;118.15;32.05;;;;;;;29.72;53.77;100545.25;4945699;28;20039;-87
2023/07/19 07:39:47;;;;;;;321.00;73.60;;;;;;;29.76;53.80;100518.69;4954608;28;20036;-87
2023/07/19 07:42:41;;;;;;;231.85;53.08;;;;;;;29.82;53.68;100492.91;4946859;29;20051;-87
2023/07/19 07:45:36;;;;;;;108.38;29.83;;;;;;;29.85;53.61;100475.16;4956362;28;20043;-87
2023/07/19 07:48:30;;;;;;;46.33;13.63;;;;;;;29.92;53.33;100472.16;4966894;28;20043;-88
2023/07/19 07:51:26;;;;;;;15.38;6.88;;;;;;;29.99;53.01;100455.06;4953008;28;20047;-87
2023/07/19 07:54:20;;;;;;;10.75;4.82;;;;;;;30.01;52.92;100427.34;4937847;29;20525;-88
2023/07/19 07:57:15;;;;;;;40.45;11.38;;;;;;;30.14;53.18;100402.81;4922162;29;20078;-88
2023/07/19 08:00:14;;;;;;;25.95;8.50;;;;;;;30.21;53.01;100387.75;4948679;29;20051;-87
2023/07/19 08:03:09;;;;;;;70.35;15.93;;;;;;;30.21;52.51;100368.91;4928228;29;20410;-88
2023/07/19 08:06:01;;;;;;;26.33;7.95;;;;;;;30.28;52.55;100381.84;4954047;28;20039;-87
2023/07/19 08:09:02;;;;;;;18.63;5.75;;;;;;;30.35;52.23;100404.84;4953792;29;20533;-87
2023/07/19 08:11:56;;;;;;;25.88;6.95;;;;;;;30.37;52.13;100421.22;4967601;28;20437;-87
2023/07/19 08:14:51;;;;;;;60.00;15.15;;;;;;;30.37;52.30;100444.44;4944406;29;20520;-88
2023/07/19 08:17:46;;;;;;;67.65;18.92;;;;;;;30.41;52.72;100478.78;4966955;28;20043;-87
2023/07/19 08:20:36;;;;;;;121.30;36.85;;;;;;;30.44;52.67;100491.88;4939770;29;20040;-87
2023/07/19 08:23:25;;;;;;;130.02;32.92;;;;;;;30.44;52.56;100485.47;4949393;28;20047;-87
2023/07/19 08:26:20;;;;;;;136.63;39.80;;;;;;;30.47;52.24;100501.47;4940858;29;20047;-87
2023/07/19 08:29:13;;;;;;;176.55;46.83;;;;;;;30.49;52.14;100510.97;4963661;28;20043;-92
2023/07/19 08:32:06;;;;;;;111.05;33.28;;;;;;;30.52;52.80;100507.28;4943041;29;20043;-89
2023/07/19 08:35:00;;;;;;;140.68;41.92;;;;;;;30.55;52.46;100494.31;4946411;28;20043;-88
2023/07/19 08:38:00;;;;;;;74.47;24.00;;;;;;;30.61;52.18;100486.88;4960498;28;20039;-87
2023/07/19 08:41:05;;;;;;;26.73;9.15;;;;;;;30.65;52.02;100467.09;4943041;29;20039;-91
2023/07/19 08:44:04;;;;;;;46.30;15.65;;;;;;;30.71;52.52;100456.84;4938305;29;20051;-88
2023/07/19 08:47:04;;;;;;;20.15;7.18;;;;;;;30.73;52.45;100454.38;4940954;29;20044;-88
2023/07/19 08:49:56;;;;;;;38.35;12.40;;;;;;;30.79;52.67;100458.13;4928456;29;20062;-89
2023/07/19 08:52:52;;;;;;;60.33;19.42;;;;;;;30.82;52.18;100460.03;4929031;29;20430;-92
2023/07/19 08:55:46;;;;;;;14.57;6.53;;;;;;;30.94;52.36;100459.13;4923132;29;20035;-92
2023/07/19 08:58:40;;;;;;;11.57;4.18;;;;;;;31.01;51.75;100448.41;4937156;29;20438;-91
2023/07/19 09:01:34;;;;;;;18.38;6.20;;;;;;;31.09;51.28;100426.44;4924037;29;20545;-89
2023/07/19 09:04:29;;;;;;;13.88;5.40;;;;;;;31.16;50.79;100408.53;4927056;29;20414;-91
2023/07/19 09:07:30;;;;;;;9.82;4.90;;;;;;;31.20;50.31;100412.75;4935185;29;20047;-92
2023/07/19 09:10:27;;;;;;;17.63;5.82;;;;;;;31.22;50.10;100415.88;4927321;29;20050;-92
2023/07/19 09:13:19;;;;;;;20.55;5.90;;;;;;;31.25;49.88;100400.09;4928036;29;20059;-87
2023/07/19 09:16:14;;;;;;;16.20;5.35;;;;;;;31.32;49.16;100403.41;4922892;29;20514;-88
2023/07/19 09:19:04;;;;;;;11.45;5.43;;;;;;;31.37;49.20;100425.28;4935958;29;20067;-91
2023/07/19 09:21:57;;;;;;;91.72;29.10;;;;;;;31.41;49.25;100425.13;4936183;29;20054;-90
2023/07/19 09:25:01;;;;;;;74.32;23.60;;;;;;;31.41;49.35;100419.50;4939363;29;20044;-90
2023/07/19 09:27:50;;;;;;;54.13;17.92;;;;;;;31.43;49.59;100417.81;4923705;29;20047;-90
2023/07/19 09:30:56;;;;;;;30.77;11.18;;;;;;;31.48;48.85;100418.44;4922236;29;20406;-90
2023/07/19 09:33:55;;;;;;;41.15;13.73;;;;;;;31.53;49.15;100400.94;4925302;29;20506;-90
2023/07/19 09:36:47;;;;;;;18.15;6.57;;;;;;;31.60;48.67;100400.66;4934785;29;20040;-88
2023/07/19 09:39:40;;;;;;;24.92;7.00;;;;;;;31.62;48.49;100396.16;4941898;29;20050;-89
2023/07/19 09:42:34;;;;;;;57.92;20.10;;;;;;;31.71;48.74;100386.94;4938361;29;20063;-91
2023/07/19 09:45:29;;;;;;;14.57;7.25;;;;;;;31.73;48.46;100382.41;4922192;29;20043;-89
2023/07/19 09:48:24;;;;;;;20.55;6.45;;;;;;;31.75;48.13;100360.22;4924099;29;20043;-89
2023/07/19 09:51:20;;;;;;;19.92;5.30;;;;;;;31.86;47.94;100365.34;4934767;29;20071;-89
2023/07/19 09:54:13;;;;;;;19.40;6.25;;;;;;;31.93;47.88;100364.25;4939750;29;20050;-90
2023/07/19 09:57:07;;;;;;;20.50;8.77;;;;;;;31.94;47.41;100346.94;4934491;29;20046;-89
2023/07/19 10:00:02;;;;;;;68.93;24.15;;;;;;;32.02;47.90;100355.81;4922464;29;20046;-89
2023/07/19 10:02:56;;;;;;;68.80;24.85;;;;;;;32.01;47.94;100357.84;4933882;29;20048;-89
2023/07/19 10:05:58;;;;;;;65.95;25.60;;;;;;;32.06;48.16;100356.41;4936892;29;20506;-89
2023/07/19 10:09:12;;;;;;;41.67;14.75;;;;;;;32.05;47.87;100357.69;4938639;28;20055;-87
2023/07/19 10:12:24;;;;;;;13.38;6.00;;;;;;;32.13;47.97;100345.66;4950747;28;20043;-88
2023/07/19 10:15:18;;;;;;;14.75;5.97;;;;;;;32.24;47.80;100356.44;4952001;28;20058;-88
2023/07/19 10:18:20;;;;;;;37.85;6.05;;;;;;;32.30;47.84;100353.75;4939118;29;20043;-88
2023/07/19 10:21:15;;;;;;;12.18;5.25;;;;;;;32.39;47.89;100345.28;4955755;28;20055;-87
2023/07/19 10:24:10;;;;;;;8.70;4.90;;;;;;;32.49;47.63;100350.41;4933412;29;20109;-87
2023/07/19 10:27:30;;;;;;;37.17;13.45;;;;;;;32.52;47.02;100343.03;4923729;29;20522;-89
2023/07/19 10:30:22;;;;;;;16.73;5.85;;;;;;;32.60;47.66;100345.06;4938361;29;20043;-89
2023/07/19 10:33:34;;;;;;;14.55;5.20;;;;;;;32.65;47.59;100333.16;4956653;28;20050;-88
2023/07/19 10:36:26;;;;;;;9.00;5.10;;;;;;;32.72;47.41;100334.84;4937046;29;20047;-88
2023/07/19 10:39:21;;;;;;;21.92;5.05;;;;;;;32.74;47.21;100321.06;4936480;29;20055;-89
2023/07/19 10:42:13;;;;;;;13.70;4.88;;;;;;;32.88;46.81;100334.44;4941336;29;20047;-86
2023/07/19 10:45:05;;;;;;;18.58;4.72;;;;;;;32.91;46.85;100329.91;4938811;29;20050;-88
2023/07/19 10:48:01;;;;;;;42.10;16.40;;;;;;;32.88;46.59;100323.19;4957145;28;20054;-87
2023/07/19 10:50:53;;;;;;;24.00;6.30;;;;;;;32.94;46.88;100324.09;4954167;28;20036;-87
2023/07/19 10:54:00;;;;;;;21.67;8.80;;;;;;;32.96;46.47;100321.56;4951605;28;20042;-88
2023/07/19 10:56:54;;;;;;;17.38;5.88;;;;;;;33.08;47.10;100328.22;4943878;28;20524;-88
2023/07/19 10:59:51;;;;;;;10.63;5.43;;;;;;;33.12;46.71;100322.41;4969514;28;20167;-89
2023/07/19 11:02:48;;;;;;;13.98;4.93;;;;;;;33.20;46.34;100318.00;4955755;28;20116;-89
2023/07/19 11:05:47;;;;;;;10.77;5.50;;;;;;;33.23;46.26;100314.22;4972376;28;20050;-85
2023/07/19 11:08:41;;;;;;;15.20;4.93;;;;;;;33.28;45.87;100322.00;4967876;28;20054;-89
2023/07/19 11:11:37;;;;;;;16.38;5.85;;;;;;;33.30;45.64;100311.81;4942364;29;20054;-88
2023/07/19 11:14:42;;;;;;;9.15;5.20;;;;;;;33.34;45.87;100312.41;4969042;28;20054;-86
2023/07/19 11:17:37;;;;;;;19.90;5.65;;;;;;;33.39;45.31;100316.59;4935168;29;20043;-89
2023/07/19 11:20:34;;;;;;;13.80;6.00;;;;;;;33.50;45.57;100311.19;4951452;28;20054;-87
2023/07/19 11:23:30;;;;;;;12.27;5.22;;;;;;;33.55;44.98;100316.16;4936169;29;20050;-87
2023/07/19 11:26:22;;;;;;;24.33;8.85;;;;;;;33.60;44.70;100317.53;4935457;29;20051;-87
2023/07/19 11:29:14;;;;;;;12.98;6.05;;;;;;;33.59;44.89;100310.31;4949031;29;20043;-86
2023/07/19 11:32:23;;;;;;;17.33;5.75;;;;;;;33.62;45.39;100309.38;4914090;29;20153;-87
2023/07/19 11:35:13;;;;;;;23.17;6.43;;;;;;;33.67;45.32;100317.16;4945925;28;20041;-87
2023/07/19 11:38:07;;;;;;;28.10;10.50;;;;;;;33.66;44.91;100307.91;4948486;28;20050;-87
2023/07/19 11:41:00;;;;;;;17.70;6.68;;;;;;;33.69;45.36;100314.63;4944687;28;20035;-88
2023/07/19 11:44:01;;;;;;;19.17;7.20;;;;;;;33.62;44.88;100296.03;4956655;28;20050;-87
2023/07/19 11:46:56;;;;;;;14.80;7.05;;;;;;;33.82;45.71;100301.06;4951540;29;20043;-79
2023/07/19 11:49:50;;;;;;;12.63;5.45;;;;;;;33.83;45.31;100303.38;4935986;29;20411;-79
2023/07/19 11:52:47;;;;;;;11.20;4.85;;;;;;;33.87;45.44;100298.34;4939129;28;20046;-79
2023/07/19 11:55:36;;;;;;;;;;;;;;;33.99;45.96;100304.16;4934394;29;20043;-79
2023/07/19 11:58:28;;;;;;;16.40;5.18;;;;;;;34.02;46.69;100300.38;4933695;29;19915;-79
2023/07/19 12:01:20;;;;;;;18.77;5.30;;;;;;;34.07;46.13;100305.34;4938032;28;20047;-79
2023/07/19 12:04:15;;;;;;;15.05;6.95;;;;;;;34.06;45.26;100292.47;4933358;29;20541;-79
2023/07/19 12:07:09;;;;;;;10.50;5.60;;;;;;;34.13;44.45;100292.09;4942724;29;20042;-79
2023/07/19 12:10:05;;;;;;;16.83;6.85;;;;;;;34.15;44.55;100283.91;4937397;29;20067;-79
2023/07/19 12:12:54;;;;;;;12.95;5.38;;;;;;;34.14;45.10;100282.34;4921944;29;20066;-79
2023/07/19 12:15:46;;;;;;;8.05;4.63;;;;;;;34.17;44.37;100281.38;4939686;29;20050;-79
2023/07/19 12:18:39;;;;;;;11.15;5.22;;;;;;;34.18;43.99;100277.28;4932578;28;20055;-79
2023/07/19 12:21:33;;;;;;;18.88;8.50;;;;;;;34.15;43.78;100272.63;4932078;29;20051;-79
2023/07/19 12:24:28;;;;;;;17.05;8.65;;;;;;;34.16;43.54;100265.72;4931998;29;20414;-79
2023/07/19 12:27:20;;;;;;;22.33;7.85;;;;;;;34.10;44.22;100250.72;4905509;29;20047;-79
2023/07/19 12:30:15;;;;;;;10.52;5.70;;;;;;;34.20;44.09;100258.63;4933303;29;20054;-80
2023/07/19 12:33:09;;;;;;;17.00;6.03;;;;;;;34.24;43.83;100255.59;4936785;29;20047;-79
2023/07/19 12:36:04;;;;;;;13.98;5.53;;;;;;;34.25;43.82;100255.09;4931241;29;20046;-79
2023/07/19 12:38:56;;;;;;;16.13;6.55;;;;;;;34.25;43.74;100249.47;4933479;29;20043;-79
2023/07/19 12:41:51;;;;;;;19.52;6.20;;;;;;;34.27;43.50;100244.09;4933996;29;20414;-79
2023/07/19 12:44:45;;;;;;;13.88;5.75;;;;;;;34.33;43.24;100241.38;4937852;28;20047;-79
2023/07/19 12:47:40;;;;;;;16.17;6.32;;;;;;;34.33;43.49;100235.72;4933271;29;20046;-80
2023/07/19 12:50:30;;;;;;;13.70;6.82;;;;;;;34.35;43.36;100236.00;4934048;29;20055;-79
2023/07/19 12:53:25;;;;;;;14.43;6.90;;;;;;;34.33;43.29;100232.91;4938041;28;20058;-79
2023/07/19 12:56:19;;;;;;;11.60;5.63;;;;;;;34.33;43.59;100224.44;4935393;29;20042;-79
2023/07/19 12:59:14;;;;;;;15.13;5.00;;;;;;;34.37;43.69;100216.53;4946342;28;20059;-80
2023/07/19 13:02:09;;;;;;;15.52;5.90;;;;;;;34.43;44.72;100211.75;4934008;29;20046;-79
2023/07/19 13:05:01;;;;;;;19.83;5.88;;;;;;;34.48;44.67;100218.72;4941447;29;20055;-79
2023/07/19 13:07:56;;;;;;;13.32;7.03;;;;;;;34.50;44.09;100210.53;4936308;29;20042;-79
2023/07/19 13:10:41;;;;;;;11.10;4.90;;;;;;;34.48;44.16;100202.56;4932945;29;20423;-80
2023/07/19 13:13:30;;;;;;;13.63;5.47;;;;;;;34.54;44.59;100206.22;4946805;29;20556;-80
2023/07/19 13:16:23;;;;;;;11.85;6.03;;;;;;;34.57;44.95;100196.78;4933248;29;20050;-79
2023/07/19 13:19:15;;;;;;;11.30;5.53;;;;;;;34.61;44.97;100186.03;4933496;29;20525;-79
2023/07/19 13:22:10;;;;;;;15.48;5.80;;;;;;;34.69;44.89;100175.88;4938654;29;20047;-79
2023/07/19 13:25:05;;;;;;;14.77;7.25;;;;;;;34.68;44.23;100184.88;4936786;29;20055;-79
2023/07/19 13:27:59;;;;;;;16.35;6.53;;;;;;;34.64;44.00;100173.75;4932190;29;20423;-79
2023/07/19 13:30:54;;;;;;;9.82;5.32;;;;;;;34.67;44.25;100166.34;4937278;29;20059;-79
2023/07/19 13:33:51;;;;;;;11.65;5.13;;;;;;;34.72;45.18;100166.44;4935047;29;20120;-79